Time;durP1;ratioP1;P1;durP2;ratioP2;P2;SDS_P1;SDS_P2;PMS_P1;PMS_P2;Temp;Humidity;BMP_temperature;BMP_pressure;BME280_temperature;BME280_humidity;BME280_pressure;Samples;Min_cycle;Max_cycle;Signal;HPM_P1;HPM_P2
2022/03/16 00:01:25;;;;;;;35.53;31.42;;;10.80;93.00;;;;;;5031013;28;20045;-84
2022/03/16 00:03:51;;;;;;;35.72;29.90;;;10.80;92.90;;;;;;5032588;28;20041;-84
2022/03/16 00:06:16;;;;;;;33.60;29.00;;;10.90;92.80;;;;;;5033268;28;20045;-85
2022/03/16 00:08:42;;;;;;;35.30;31.13;;;10.80;93.00;;;;;;5032977;28;20132;-85
2022/03/16 00:11:08;;;;;;;33.60;29.27;;;10.80;92.90;;;;;;5033199;28;20025;-85
2022/03/16 00:13:33;;;;;;;34.15;30.23;;;10.80;93.10;;;;;;5032982;28;20113;-85
2022/03/16 00:15:59;;;;;;;39.55;31.80;;;10.90;93.00;;;;;;5033870;28;20109;-87
2022/03/16 00:18:25;;;;;;;40.38;31.92;;;10.80;93.00;;;;;;5033968;28;20460;-87
2022/03/16 00:20:51;;;;;;;32.00;27.70;;;10.80;93.10;;;;;;5037135;28;20033;-87
2022/03/16 00:23:17;;;;;;;35.20;28.02;;;10.70;93.30;;;;;;5037538;28;20046;-87
2022/03/16 00:25:43;;;;;;;28.98;25.70;;;10.80;93.40;;;;;;5037741;28;20033;-88
2022/03/16 00:28:09;;;;;;;31.80;28.35;;;10.80;93.20;;;;;;5020152;28;20452;-87
2022/03/16 00:30:36;;;;;;;29.88;26.45;;;10.80;93.20;;;;;;5037624;28;20390;-88
2022/03/16 00:33:03;;;;;;;30.80;25.73;;;10.80;93.10;;;;;;5037330;28;20037;-88
2022/03/16 00:35:29;;;;;;;28.27;25.23;;;10.90;93.10;;;;;;5037551;28;20037;-86
2022/03/16 00:37:54;;;;;;;25.77;23.10;;;10.90;93.00;;;;;;5022399;28;20061;-87
2022/03/16 00:40:20;;;;;;;28.08;23.90;;;10.90;93.00;;;;;;5037828;28;20076;-91
2022/03/16 00:42:46;;;;;;;26.48;23.55;;;11.00;92.90;;;;;;5037979;28;20042;-88
2022/03/16 00:45:12;;;;;;;29.70;24.40;;;11.00;92.90;;;;;;5037830;28;20026;-88
2022/03/16 00:47:37;;;;;;;27.33;23.73;;;11.00;93.00;;;;;;5036835;28;20037;-87
2022/03/16 00:50:04;;;;;;;27.23;24.27;;;11.00;92.90;;;;;;5037059;28;20036;-88
2022/03/16 00:52:29;;;;;;;28.65;25.60;;;11.10;92.80;;;;;;5037111;28;20671;-86
2022/03/16 00:54:55;;;;;;;27.58;24.67;;;11.10;92.90;;;;;;5037121;28;20071;-88
2022/03/16 00:57:21;;;;;;;36.85;32.90;;;11.00;93.00;;;;;;5037415;28;20430;-89
2022/03/16 00:59:47;;;;;;;30.67;27.40;;;11.00;93.00;;;;;;5037163;28;20036;-86
2022/03/16 01:02:12;;;;;;;32.65;28.70;;;10.80;93.30;;;;;;5036278;28;20041;-84
2022/03/16 01:04:38;;;;;;;31.77;28.02;;;10.90;93.30;;;;;;5018247;28;20048;-87
2022/03/16 01:07:05;;;;;;;34.63;30.33;;;10.90;93.20;;;;;;5028713;28;20033;-86
2022/03/16 01:09:31;;;;;;;37.92;33.70;;;11.00;93.00;;;;;;5031437;28;20069;-86
2022/03/16 01:11:56;;;;;;;33.00;28.45;;;10.90;93.00;;;;;;5037079;28;20088;-88
2022/03/16 01:14:22;;;;;;;33.70;28.70;;;10.90;93.10;;;;;;5036946;28;20041;-85
2022/03/16 01:16:48;;;;;;;38.40;31.83;;;10.90;92.90;;;;;;5036299;28;20033;-85
2022/03/16 01:19:14;;;;;;;40.58;30.67;;;10.90;92.80;;;;;;5036591;28;20061;-84
2022/03/16 01:21:41;;;;;;;46.28;34.08;;;10.90;92.60;;;;;;5035815;28;20095;-85
2022/03/16 01:24:07;;;;;;;39.17;33.50;;;10.90;92.50;;;;;;5021994;28;20043;-84
2022/03/16 01:26:34;;;;;;;41.92;35.30;;;10.90;92.50;;;;;;5036298;28;20030;-86
2022/03/16 01:29:01;;;;;;;39.47;33.83;;;10.90;92.50;;;;;;5035661;28;20042;-86
2022/03/16 01:31:27;;;;;;;53.65;43.90;;;10.90;92.50;;;;;;5018368;28;20034;-86
2022/03/16 01:33:54;;;;;;;49.38;42.65;;;10.80;92.30;;;;;;5036718;28;20044;-87
2022/03/16 01:36:46;;;;;;;54.13;43.60;;;10.60;92.40;;;;;;5036674;28;20056;-86
2022/03/16 01:39:11;;;;;;;52.65;40.28;;;10.50;92.50;;;;;;5013711;28;20082;-86
2022/03/16 01:41:37;;;;;;;55.88;42.33;;;10.50;92.80;;;;;;5018397;28;20049;-86
2022/03/16 01:44:04;;;;;;;42.30;36.78;;;10.50;92.50;;;;;;5036116;28;20035;-86
2022/03/16 01:46:29;;;;;;;52.90;40.53;;;10.50;92.60;;;;;;5036390;28;20037;-87
2022/03/16 01:48:56;;;;;;;53.28;45.10;;;10.50;92.20;;;;;;5036373;28;20033;-87
2022/03/16 01:51:22;;;;;;;46.28;40.33;;;10.50;91.90;;;;;;5036537;28;20038;-86
2022/03/16 01:53:49;;;;;;;48.63;40.47;;;10.50;92.00;;;;;;5018175;28;20049;-86
2022/03/16 01:56:18;;;;;;;56.10;44.55;;;10.60;91.90;;;;;;5018362;28;20029;-85
2022/03/16 01:58:44;;;;;;;53.63;44.45;;;10.60;91.80;;;;;;5036385;28;20497;-86
2022/03/16 02:01:10;;;;;;;50.25;42.28;;;10.50;91.70;;;;;;5037257;28;20049;-88
2022/03/16 02:03:36;;;;;;;44.15;38.50;;;10.50;92.00;;;;;;5038104;28;20116;-88
2022/03/16 02:06:02;;;;;;;51.65;42.60;;;10.60;91.90;;;;;;5038062;28;20033;-88
2022/03/16 02:08:33;;;;;;;51.60;41.85;;;10.60;91.70;;;;;;5036851;28;20060;-87
2022/03/16 02:10:59;;;;;;;50.85;42.20;;;10.60;91.80;;;;;;5036749;28;20076;-86
2022/03/16 02:13:25;;;;;;;48.33;41.58;;;10.50;91.90;;;;;;5036883;28;20041;-88
2022/03/16 02:15:51;;;;;;;60.58;49.00;;;10.50;91.70;;;;;;5036467;28;20033;-87
2022/03/16 02:18:26;;;;;;;56.53;48.92;;;10.50;91.40;;;;;;5036889;28;20033;-89
2022/03/16 02:20:51;;;;;;;49.63;42.00;;;10.30;91.50;;;;;;5018622;28;20037;-88
2022/03/16 02:23:17;;;;;;;51.25;42.25;;;10.30;91.80;;;;;;5036195;28;20044;-88
2022/03/16 02:25:50;;;;;;;50.75;39.60;;;10.40;91.70;;;;;;5036446;28;20034;-88
2022/03/16 02:28:36;;;;;;;46.17;39.05;;;10.40;91.90;;;;;;5036611;28;20501;-89
2022/03/16 02:31:02;;;;;;;45.78;37.85;;;10.40;91.80;;;;;;5035992;28;20033;-88
2022/03/16 02:33:27;;;;;;;53.83;40.15;;;10.60;91.70;;;;;;5036489;28;20041;-88
2022/03/16 02:35:54;;;;;;;54.05;42.83;;;10.60;91.40;;;;;;5018589;28;20040;-87
2022/03/16 02:38:19;;;;;;;50.88;39.00;;;10.60;91.50;;;;;;5036571;28;20069;-87
2022/03/16 02:40:45;;;;;;;47.60;38.75;;;10.60;91.50;;;;;;5035120;28;20061;-86
2022/03/16 02:43:11;;;;;;;42.75;36.42;;;10.60;91.70;;;;;;5034987;28;20116;-85
2022/03/16 02:45:36;;;;;;;47.08;37.78;;;10.70;91.50;;;;;;5035013;28;20049;-85
2022/03/16 02:48:02;;;;;;;45.15;37.78;;;10.70;91.30;;;;;;5034417;28;20373;-80
2022/03/16 02:50:28;;;;;;;42.28;36.22;;;10.80;91.20;;;;;;5033081;28;20449;-81
2022/03/16 02:52:54;;;;;;;44.90;36.90;;;10.80;91.10;;;;;;5032932;28;20088;-80
2022/03/16 02:55:20;;;;;;;60.35;52.25;;;10.90;91.00;;;;;;5032278;28;20042;-80
2022/03/16 02:57:46;;;;;;;75.60;56.60;;;10.60;90.40;;;;;;5032298;28;20540;-80
2022/03/16 03:00:13;;;;;;;55.67;44.03;;;10.20;90.80;;;;;;5032531;28;20029;-79
2022/03/16 03:02:41;;;;;;;52.63;44.38;;;10.20;91.40;;;;;;5029639;28;20072;-80
2022/03/16 03:05:07;;;;;;;56.00;45.67;;;10.30;91.10;;;;;;5032178;28;20025;-81
2022/03/16 03:07:33;;;;;;;61.38;45.45;;;10.30;90.60;;;;;;5032394;28;20025;-81
2022/03/16 03:09:58;;;;;;;61.90;49.20;;;10.30;90.50;;;;;;5033347;28;20056;-82
2022/03/16 03:12:24;;;;;;;57.35;43.15;;;10.30;90.30;;;;;;5033285;28;20052;-81
2022/03/16 03:14:50;;;;;;;57.38;47.00;;;10.30;90.40;;;;;;5032591;28;20382;-81
2022/03/16 03:17:16;;;;;;;59.55;48.30;;;10.30;90.30;;;;;;5014664;28;20361;-82
2022/03/16 03:19:44;;;;;;;64.35;48.70;;;10.30;90.40;;;;;;5015028;28;20037;-81
2022/03/16 03:22:10;;;;;;;58.67;49.50;;;10.30;90.40;;;;;;5031478;28;20507;-81
2022/03/16 03:24:36;;;;;;;63.20;51.00;;;10.20;90.60;;;;;;5032070;28;20037;-81
2022/03/16 03:27:02;;;;;;;53.13;44.00;;;10.20;90.60;;;;;;5032202;28;20108;-80
2022/03/16 03:29:27;;;;;;;53.35;41.83;;;10.20;90.70;;;;;;5014588;28;20034;-80
2022/03/16 03:31:53;;;;;;;62.78;50.72;;;10.20;90.50;;;;;;5032995;28;20121;-82
2022/03/16 03:34:19;;;;;;;66.28;52.70;;;10.30;90.20;;;;;;5031620;28;20029;-82
2022/03/16 03:36:45;;;;;;;65.00;53.80;;;10.10;90.10;;;;;;5032924;28;20045;-82
2022/03/16 03:39:10;;;;;;;66.65;49.90;;;10.00;90.40;;;;;;5015625;28;20489;-83
2022/03/16 03:41:36;;;;;;;64.78;52.63;;;9.90;90.50;;;;;;5033029;28;20041;-83
2022/03/16 03:44:03;;;;;;;63.28;49.63;;;9.90;90.50;;;;;;5032838;28;20030;-82
2022/03/16 03:46:29;;;;;;;69.35;49.10;;;9.90;90.20;;;;;;5032362;28;20061;-81
2022/03/16 03:48:54;;;;;;;55.42;44.80;;;10.00;90.30;;;;;;5033412;28;20429;-82
2022/03/16 03:51:20;;;;;;;59.58;48.60;;;10.00;90.00;;;;;;5033339;28;20087;-82
2022/03/16 03:53:46;;;;;;;62.20;51.55;;;10.10;89.70;;;;;;5032861;28;20041;-82
2022/03/16 03:56:12;;;;;;;68.53;55.42;;;10.10;89.10;;;;;;5036957;28;20136;-82
2022/03/16 03:58:38;;;;;;;60.08;47.40;;;9.80;89.60;;;;;;5036260;28;20025;-81
2022/03/16 04:01:06;;;;;;;61.90;50.42;;;9.80;90.20;;;;;;5036419;28;20053;-81
2022/03/16 04:03:32;;;;;;;53.65;42.63;;;9.90;90.00;;;;;;5035779;28;20037;-81
2022/03/16 04:05:59;;;;;;;62.80;47.45;;;10.00;90.00;;;;;;5035946;28;20466;-80
2022/03/16 04:08:25;;;;;;;51.67;42.72;;;10.10;89.50;;;;;;5036027;28;20073;-82
2022/03/16 04:10:58;;;;;;;52.78;41.72;;;10.20;89.50;;;;;;5036420;28;20072;-80
2022/03/16 04:13:24;;;;;;;52.10;41.08;;;10.30;89.40;;;;;;5035412;28;20037;-82
2022/03/16 04:15:50;;;;;;;53.70;42.63;;;10.30;89.00;;;;;;5030292;28;20034;-81
2022/03/16 04:18:16;;;;;;;51.92;41.72;;;10.40;88.80;;;;;;5017484;28;20025;-81
2022/03/16 04:20:42;;;;;;;50.53;40.58;;;10.40;88.60;;;;;;5018292;28;20034;-81
2022/03/16 04:23:07;;;;;;;50.45;39.03;;;10.40;88.40;;;;;;5035600;28;20034;-81
2022/03/16 04:25:33;;;;;;;50.05;39.13;;;10.50;88.30;;;;;;5018274;28;20096;-82
2022/03/16 04:27:59;;;;;;;47.33;37.78;;;10.60;88.60;;;;;;5035946;28;20037;-82
2022/03/16 04:30:24;;;;;;;49.05;41.13;;;10.60;88.90;;;;;;5018275;28;20038;-82
2022/03/16 04:32:52;;;;;;;49.22;40.33;;;10.50;89.60;;;;;;5017518;28;20592;-82
2022/03/16 04:35:19;;;;;;;42.10;36.17;;;10.50;90.00;;;;;;5034537;28;20045;-81
2022/03/16 04:37:48;;;;;;;48.88;35.78;;;10.60;90.00;;;;;;5017694;28;20033;-81
2022/03/16 04:40:15;;;;;;;41.92;34.45;;;10.60;89.70;;;;;;5035468;28;20041;-81
2022/03/16 04:42:41;;;;;;;43.42;33.20;;;10.60;90.10;;;;;;5035536;28;20487;-80
2022/03/16 04:45:07;;;;;;;43.22;34.92;;;10.60;90.10;;;;;;5035265;28;20038;-80
2022/03/16 04:47:33;;;;;;;47.92;36.95;;;10.60;90.10;;;;;;5035194;28;20030;-81
2022/03/16 04:49:58;;;;;;;41.42;34.50;;;10.70;90.10;;;;;;5035127;28;20370;-80
2022/03/16 04:52:25;;;;;;;42.88;35.33;;;10.60;90.10;;;;;;5033502;28;20037;-80
2022/03/16 04:54:51;;;;;;;45.00;37.17;;;10.60;90.30;;;;;;5032725;28;20146;-80
2022/03/16 04:57:16;;;;;;;46.95;36.88;;;10.60;90.20;;;;;;5035281;28;20121;-81
2022/03/16 04:59:42;;;;;;;44.28;36.90;;;10.60;90.00;;;;;;5035480;28;20425;-82
2022/03/16 05:02:08;;;;;;;51.15;38.92;;;10.60;89.80;;;;;;5035196;28;20088;-80
2022/03/16 05:04:33;;;;;;;49.97;40.95;;;10.60;90.00;;;;;;5017300;28;20041;-80
2022/03/16 05:06:59;;;;;;;45.97;36.53;;;10.50;90.10;;;;;;5028850;28;20520;-80
2022/03/16 05:09:25;;;;;;;42.42;36.10;;;10.50;90.10;;;;;;5031233;28;20030;-80
2022/03/16 05:11:50;;;;;;;43.47;35.15;;;10.50;90.00;;;;;;5034403;28;20496;-80
2022/03/16 05:14:17;;;;;;;47.22;40.50;;;10.50;89.90;;;;;;5032516;28;20065;-81
2022/03/16 05:16:43;;;;;;;44.13;39.30;;;10.60;89.70;;;;;;5035087;28;20038;-81
2022/03/16 05:19:08;;;;;;;67.72;54.25;;;10.50;89.60;;;;;;5034339;28;20079;-82
2022/03/16 05:21:34;;;;;;;68.28;57.33;;;10.30;88.50;;;;;;5034408;28;20401;-81
2022/03/16 05:24:00;;;;;;;67.13;55.88;;;9.90;89.10;;;;;;5026871;28;20041;-81
2022/03/16 05:26:26;;;;;;;72.55;54.83;;;9.60;89.70;;;;;;5034321;28;20519;-80
2022/03/16 05:28:52;;;;;;;65.80;53.80;;;9.50;89.80;;;;;;5012682;28;20040;-81
2022/03/16 05:31:19;;;;;;;64.35;49.55;;;9.50;89.80;;;;;;5032837;28;20493;-80
2022/03/16 05:33:45;;;;;;;63.35;48.70;;;9.60;89.50;;;;;;5034643;28;20046;-80
2022/03/16 05:36:14;;;;;;;60.22;46.80;;;9.60;89.40;;;;;;5018383;28;20033;-79
2022/03/16 05:38:39;;;;;;;55.97;45.00;;;9.70;88.90;;;;;;5032237;28;20045;-81
2022/03/16 05:41:05;;;;;;;60.97;47.92;;;9.90;88.70;;;;;;5034191;28;20409;-80
2022/03/16 05:43:31;;;;;;;68.32;47.10;;;9.90;88.60;;;;;;5034360;28;20041;-81
2022/03/16 05:45:57;;;;;;;72.05;56.95;;;9.90;88.80;;;;;;5034531;28;20113;-81
2022/03/16 05:48:23;;;;;;;66.50;52.55;;;9.70;88.80;;;;;;5033931;28;20041;-81
2022/03/16 05:50:49;;;;;;;75.28;54.92;;;9.50;90.00;;;;;;5016740;28;20478;-81
2022/03/16 05:53:16;;;;;;;65.50;51.42;;;9.40;90.20;;;;;;5007956;28;20082;-80
2022/03/16 05:55:42;;;;;;;63.58;49.63;;;9.30;90.30;;;;;;4996404;28;20042;-81
2022/03/16 05:58:08;;;;;;;55.75;45.08;;;9.40;90.60;;;;;;4996308;28;20498;-82
2022/03/16 06:00:35;;;;;;;54.70;43.75;;;9.40;90.50;;;;;;5013546;28;20049;-81
2022/03/16 06:03:01;;;;;;;59.90;49.05;;;9.60;90.20;;;;;;5009334;28;20517;-81
2022/03/16 06:05:26;;;;;;;57.83;46.85;;;9.70;90.00;;;;;;4999955;28;20037;-82
2022/03/16 06:07:53;;;;;;;63.58;44.40;;;9.70;89.70;;;;;;5014738;28;20335;-83
2022/03/16 06:10:19;;;;;;;60.55;47.40;;;9.80;89.80;;;;;;5014942;28;20030;-83
2022/03/16 06:12:59;;;;;;;54.50;43.75;;;9.80;89.90;;;;;;5010316;28;20475;-81
2022/03/16 06:15:26;;;;;;;;;;;10.00;89.60;;;;;;5014468;28;20034;-82
2022/03/16 06:17:54;;;;;;;59.03;44.90;;;10.10;89.40;;;;;;5014027;28;19909;-82
2022/03/16 06:20:20;;;;;;;68.47;51.13;;;10.00;88.60;;;;;;4997009;28;20050;-82
2022/03/16 06:22:46;;;;;;;70.05;53.65;;;9.80;89.20;;;;;;5014185;28;20045;-82
2022/03/16 06:25:15;;;;;;;67.65;47.58;;;9.60;90.20;;;;;;4997713;28;20081;-82
2022/03/16 06:27:41;;;;;;;64.15;51.22;;;9.50;90.40;;;;;;5014970;28;20559;-85
2022/03/16 06:30:07;;;;;;;58.95;46.65;;;9.60;90.40;;;;;;5013815;28;20113;-83
2022/03/16 06:32:33;;;;;;;55.97;45.30;;;9.70;90.40;;;;;;4996761;28;20042;-82
2022/03/16 06:35:18;;;;;;;54.67;44.80;;;9.80;90.40;;;;;;5014323;28;20045;-82
2022/03/16 06:37:45;;;;;;;61.28;48.80;;;10.00;90.00;;;;;;5000201;23;20053;-81
2022/03/16 06:40:14;;;;;;;63.90;52.40;;;10.10;89.50;;;;;;4996251;28;20476;-82
2022/03/16 06:43:14;;;;;;;76.32;56.35;;;9.90;89.70;;;;;;4993353;28;20054;-82
2022/03/16 06:45:41;;;;;;;71.03;53.22;;;9.70;90.30;;;;;;4984226;28;20034;-79
2022/03/16 06:48:07;;;;;;;69.50;53.65;;;9.50;90.50;;;;;;5005751;28;20022;-79
2022/03/16 06:50:33;;;;;;;74.32;57.70;;;9.50;90.60;;;;;;5003626;28;20457;-81
2022/03/16 06:52:59;;;;;;;79.47;54.95;;;9.40;90.60;;;;;;4984205;28;20045;-79
2022/03/16 06:55:26;;;;;;;66.85;53.40;;;9.40;90.60;;;;;;5005205;28;20074;-79
2022/03/16 06:57:52;;;;;;;58.00;46.75;;;9.40;90.80;;;;;;5001818;28;20038;-82
2022/03/16 07:00:18;;;;;;;65.03;51.85;;;9.60;90.70;;;;;;4990136;28;20108;-80
2022/03/16 07:02:57;;;;;;;53.53;43.30;;;9.60;90.30;;;;;;5011039;28;20113;-80
2022/03/16 07:05:34;;;;;;;58.30;45.50;;;9.70;90.30;;;;;;4984993;28;20042;-79
2022/03/16 07:08:02;;;;;;;82.75;40.30;;;9.80;90.00;;;;;;4989513;28;20034;-80
2022/03/16 07:10:29;;;;;;;66.72;49.20;;;10.00;90.00;;;;;;4988270;28;20093;-81
2022/03/16 07:12:55;;;;;;;57.53;41.47;;;10.00;89.60;;;;;;5001528;28;20192;-79
2022/03/16 07:15:22;;;;;;;56.35;42.50;;;10.10;89.90;;;;;;5008997;28;20052;-79
2022/03/16 07:17:48;;;;;;;54.70;44.97;;;10.30;89.40;;;;;;5010455;28;20034;-79
2022/03/16 07:20:14;;;;;;;49.58;41.38;;;10.40;88.70;;;;;;5013158;28;20040;-83
2022/03/16 07:22:40;;;;;;;46.58;39.58;;;10.40;88.80;;;;;;4996055;28;20079;-83
2022/03/16 07:25:09;;;;;;;56.58;42.35;;;10.50;88.50;;;;;;5015193;28;20038;-85
2022/03/16 07:27:40;;;;;;;55.63;41.05;;;10.60;88.00;;;;;;4995655;28;20058;-86
2022/03/16 07:30:08;;;;;;;49.97;40.33;;;10.70;88.00;;;;;;5004313;28;20034;-86
2022/03/16 07:32:39;;;;;;;50.38;40.42;;;10.80;87.90;;;;;;5000823;28;20530;-87
2022/03/16 07:35:11;;;;;;;50.40;40.85;;;10.90;87.90;;;;;;5005105;28;20034;-86
2022/03/16 07:37:39;;;;;;;55.63;47.33;;;11.00;87.70;;;;;;5024471;28;20427;-85
2022/03/16 07:40:06;;;;;;;57.95;47.67;;;11.00;87.50;;;;;;5033589;28;20095;-81
2022/03/16 07:42:32;;;;;;;59.00;48.58;;;10.90;87.30;;;;;;5010488;28;20130;-81
2022/03/16 07:44:58;;;;;;;56.80;50.30;;;10.70;87.70;;;;;;5011253;28;20061;-81
2022/03/16 07:47:25;;;;;;;58.50;48.30;;;10.70;88.30;;;;;;5032198;28;20117;-80
2022/03/16 07:49:52;;;;;;;54.72;43.90;;;10.60;88.50;;;;;;5031675;28;20041;-79
2022/03/16 07:52:20;;;;;;;54.33;44.35;;;10.70;88.50;;;;;;5015861;28;20076;-81
2022/03/16 07:54:45;;;;;;;56.35;47.17;;;10.80;88.60;;;;;;5033415;28;20056;-82
2022/03/16 07:57:11;;;;;;;58.58;51.10;;;10.90;88.30;;;;;;5032208;28;20041;-82
2022/03/16 07:59:37;;;;;;;58.15;51.58;;;10.80;88.10;;;;;;5032366;28;20044;-82
2022/03/16 08:02:03;;;;;;;61.05;47.55;;;10.70;88.70;;;;;;5020578;28;20033;-82
2022/03/16 08:04:29;;;;;;;62.00;50.97;;;10.60;89.30;;;;;;5034128;28;20095;-82
2022/03/16 08:06:54;;;;;;;56.33;47.53;;;10.60;89.10;;;;;;5032348;28;20113;-83
2022/03/16 08:09:20;;;;;;;59.13;47.60;;;10.70;89.40;;;;;;5033903;28;20095;-83
2022/03/16 08:11:46;;;;;;;53.55;46.60;;;10.70;89.50;;;;;;5032455;28;20039;-83
2022/03/16 08:14:12;;;;;;;53.00;41.05;;;10.70;89.40;;;;;;5034259;28;20047;-82
2022/03/16 08:16:38;;;;;;;53.92;45.17;;;10.80;89.50;;;;;;5031195;28;20037;-82
2022/03/16 08:19:04;;;;;;;46.67;41.20;;;10.80;89.50;;;;;;5013191;28;20050;-87
2022/03/16 08:21:30;;;;;;;40.38;33.45;;;10.90;89.70;;;;;;5034512;28;20029;-87
2022/03/16 08:23:56;;;;;;;43.25;38.05;;;11.00;89.70;;;;;;5035290;28;20037;-86
2022/03/16 08:26:40;;;;;;;73.93;62.33;;;11.20;89.10;;;;;;5035487;28;20073;-85
2022/03/16 08:29:07;;;;;;;45.55;38.88;;;11.30;88.60;;;;;;5035126;28;20037;-86
2022/03/16 08:31:34;;;;;;;39.75;35.40;;;11.40;88.10;;;;;;5035808;28;20040;-88
2022/03/16 08:34:01;;;;;;;31.65;28.20;;;11.40;88.10;;;;;;5034080;28;20057;-86
2022/03/16 08:36:26;;;;;;;39.85;35.15;;;11.40;88.30;;;;;;5033088;28;20148;-86
2022/03/16 08:38:52;;;;;;;38.38;33.60;;;11.60;87.50;;;;;;5034319;28;20513;-86
2022/03/16 08:41:18;;;;;;;42.17;37.63;;;11.70;86.90;;;;;;5035701;28;20041;-85
2022/03/16 08:43:44;;;;;;;42.45;34.03;;;11.90;86.40;;;;;;5017915;28;20091;-82
2022/03/16 08:46:10;;;;;;;40.72;33.65;;;12.10;85.80;;;;;;5036518;28;20042;-81
2022/03/16 08:48:37;;;;;;;43.00;38.15;;;12.20;85.20;;;;;;5036566;28;20041;-81
2022/03/16 08:51:03;;;;;;;38.72;34.53;;;12.30;84.20;;;;;;5035663;28;20037;-80
2022/03/16 08:53:29;;;;;;;39.42;35.03;;;12.20;84.40;;;;;;5036323;28;20109;-80
2022/03/16 08:55:55;;;;;;;35.90;32.15;;;12.20;84.70;;;;;;5036125;28;20457;-80
2022/03/16 08:58:21;;;;;;;38.15;33.90;;;12.30;84.10;;;;;;5035891;28;20029;-81
2022/03/16 09:00:47;;;;;;;40.78;33.53;;;12.40;84.50;;;;;;5035997;28;20556;-80
2022/03/16 09:03:12;;;;;;;44.00;36.60;;;12.50;84.10;;;;;;5036561;28;20373;-80
2022/03/16 09:05:38;;;;;;;35.42;31.63;;;12.60;83.40;;;;;;5036714;28;20124;-81
2022/03/16 09:08:04;;;;;;;41.75;37.45;;;12.60;82.80;;;;;;5036125;28;20087;-81
2022/03/16 09:10:30;;;;;;;37.75;31.95;;;12.60;81.90;;;;;;5035764;28;20130;-80
2022/03/16 09:12:55;;;;;;;37.20;31.38;;;12.50;81.80;;;;;;5017774;28;20061;-81
2022/03/16 09:15:22;;;;;;;38.85;34.65;;;12.60;82.30;;;;;;5036510;28;20048;-81
2022/03/16 09:17:47;;;;;;;34.75;31.00;;;12.70;81.50;;;;;;5036416;28;20033;-81
2022/03/16 09:20:13;;;;;;;33.13;29.58;;;12.70;81.40;;;;;;5035919;28;20401;-80
2022/03/16 09:22:39;;;;;;;37.20;31.77;;;12.90;80.60;;;;;;5035661;28;20435;-80
2022/03/16 09:25:07;;;;;;;40.65;35.38;;;13.00;80.40;;;;;;5032781;28;20061;-81
2022/03/16 09:27:37;;;;;;;41.08;36.20;;;13.00;80.30;;;;;;5006228;28;20065;-81
2022/03/16 09:30:04;;;;;;;42.08;37.50;;;12.90;79.80;;;;;;5026401;28;20033;-81
2022/03/16 09:32:33;;;;;;;40.95;34.47;;;12.90;79.40;;;;;;5023433;28;20038;-82
2022/03/16 09:35:00;;;;;;;38.05;33.75;;;12.80;79.40;;;;;;5019315;28;20132;-82
2022/03/16 09:37:25;;;;;;;41.38;36.83;;;12.80;79.30;;;;;;5016021;28;20056;-82
2022/03/16 09:39:52;;;;;;;41.17;36.72;;;12.80;78.40;;;;;;5005250;28;20658;-82
2022/03/16 09:42:19;;;;;;;36.10;31.98;;;12.50;79.10;;;;;;5034749;28;20493;-82
2022/03/16 09:44:46;;;;;;;33.97;30.25;;;12.50;80.50;;;;;;5027638;28;20029;-82
2022/03/16 09:47:12;;;;;;;32.60;29.17;;;12.60;80.30;;;;;;5024927;28;20034;-81
2022/03/16 09:49:39;;;;;;;34.45;30.02;;;12.80;79.90;;;;;;5025754;28;20026;-82
2022/03/16 09:52:07;;;;;;;35.28;30.00;;;13.00;79.70;;;;;;5025839;28;20038;-82
2022/03/16 09:54:33;;;;;;;33.75;28.83;;;13.30;78.70;;;;;;5028056;28;20022;-82
2022/03/16 09:56:59;;;;;;;37.10;31.02;;;13.60;77.90;;;;;;5026297;28;20037;-81
2022/03/16 09:59:25;;;;;;;38.38;33.08;;;13.90;76.40;;;;;;5026305;28;20038;-81
2022/03/16 10:01:59;;;;;;;33.30;29.75;;;14.10;75.90;;;;;;5006839;28;20044;-81
2022/03/16 10:04:29;;;;;;;36.00;32.10;;;14.30;74.80;;;;;;5024355;28;20084;-81
2022/03/16 10:06:55;;;;;;;;;;;14.40;74.40;;;;;;5025311;28;20029;-82
2022/03/16 10:15:10;;;;;;;43.13;37.33;;;14.30;73.00;;;;;;5015651;28;20116;-81
2022/03/16 10:17:46;;;;;;;45.80;40.55;;;14.10;73.30;;;;;;5014203;28;20445;-81
2022/03/16 10:20:19;;;;;;;40.53;33.42;;;13.80;72.80;;;;;;5015149;28;20397;-80
2022/03/16 10:23:03;;;;;;;42.60;37.10;;;13.70;73.50;;;;;;5022743;28;20183;-81
2022/03/16 10:25:36;;;;;;;40.97;34.30;;;13.80;73.50;;;;;;5021501;28;20042;-81
2022/03/16 10:28:10;;;;;;;37.60;32.75;;;13.90;73.70;;;;;;5029056;28;20044;-81
2022/03/16 10:30:58;;;;;;;37.58;32.70;;;14.10;73.40;;;;;;5016788;28;20033;-82
2022/03/16 10:33:25;;;;;;;41.22;34.60;;;14.20;73.20;;;;;;5011704;28;20385;-81
2022/03/16 10:36:21;;;;;;;44.33;37.25;;;14.30;71.70;;;;;;5007001;28;20037;-80
2022/03/16 10:38:52;;;;;;;45.10;37.70;;;14.30;71.00;;;;;;5007805;28;20076;-81
2022/03/16 10:46:52;;;;;;;49.63;38.33;;;14.40;71.60;;;;;;5024408;28;20515;-81
2022/03/16 10:49:20;;;;;;;46.40;41.35;;;14.30;71.20;;;;;;5004768;28;20084;-81
2022/03/16 10:51:59;;;;;;;45.50;39.67;;;14.40;70.80;;;;;;5021965;28;20052;-81
2022/03/16 10:54:26;;;;;;;47.95;39.25;;;14.50;71.50;;;;;;5023380;28;20026;-81
2022/03/16 10:56:53;;;;;;;52.20;39.03;;;14.50;70.50;;;;;;5032766;28;20559;-83
2022/03/16 10:59:23;;;;;;;44.90;36.65;;;14.40;70.40;;;;;;5017090;28;20037;-83
2022/03/16 11:01:49;;;;;;;41.90;33.67;;;14.50;70.60;;;;;;5034777;28;20094;-83
2022/03/16 11:04:16;;;;;;;46.83;40.45;;;14.70;70.50;;;;;;5016738;28;20116;-83
2022/03/16 11:06:42;;;;;;;45.42;36.97;;;14.70;69.20;;;;;;5017003;28;20512;-82
2022/03/16 11:09:10;;;;;;;44.97;36.90;;;14.50;70.00;;;;;;5034314;28;20041;-82
2022/03/16 11:14:24;;;;;;;40.63;35.95;;;14.70;69.50;;;;;;5030357;28;20409;-82
2022/03/16 11:16:50;;;;;;;41.13;36.33;;;14.70;69.80;;;;;;5028046;28;20453;-81
2022/03/16 11:19:17;;;;;;;42.83;37.28;;;14.70;69.40;;;;;;5022600;28;20033;-82
2022/03/16 11:22:19;;;;;;;43.15;38.17;;;14.70;69.70;;;;;;5016269;28;20430;-81
2022/03/16 11:24:50;;;;;;;40.13;35.60;;;14.70;69.60;;;;;;5016789;28;20060;-82
2022/03/16 11:27:41;;;;;;;40.97;34.80;;;14.80;69.60;;;;;;5016274;28;20037;-81
2022/03/16 11:30:25;;;;;;;;;;;14.90;70.10;;;;;;5034988;28;20040;-82
2022/03/16 11:33:00;;;;;;;44.35;37.88;;;14.80;69.10;;;;;;5033351;28;19905;-80
2022/03/16 11:35:37;;;;;;;43.03;36.67;;;14.70;68.50;;;;;;5034318;28;20030;-81
2022/03/16 11:38:10;;;;;;;41.92;36.10;;;14.80;69.50;;;;;;5033008;28;20050;-81
2022/03/16 11:40:51;;;;;;;41.92;35.25;;;14.80;68.90;;;;;;5033059;28;20476;-81
2022/03/16 11:43:25;;;;;;;38.95;34.60;;;14.80;69.00;;;;;;5032817;28;20056;-81
2022/03/16 11:45:54;;;;;;;43.97;38.25;;;15.00;69.10;;;;;;5034000;28;20037;-81
2022/03/16 11:48:33;;;;;;;45.97;38.77;;;15.00;68.30;;;;;;5033565;28;20052;-81
2022/03/16 11:51:17;;;;;;;47.22;40.05;;;15.00;68.40;;;;;;5031876;28;20260;-81
2022/03/16 11:53:57;;;;;;;46.78;39.42;;;14.80;68.10;;;;;;5021614;28;20046;-85
2022/03/16 11:56:23;;;;;;;253.75;224.95;;;14.70;68.50;;;;;;5014048;28;20141;-83
2022/03/16 11:58:53;;;;;;;74.57;60.72;;;14.50;69.10;;;;;;5002755;28;20469;-82
2022/03/16 12:01:23;;;;;;;;;;;14.50;69.60;;;;;;5024467;28;20029;-83
2022/03/16 12:04:08;;;;;;;44.63;37.13;;;14.50;69.80;;;;;;5024604;28;19916;-83
2022/03/16 12:06:50;;;;;;;45.65;38.90;;;14.70;70.00;;;;;;5026554;28;20024;-83
2022/03/16 12:09:45;;;;;;;43.92;35.95;;;14.90;70.40;;;;;;5030139;28;20029;-83
2022/03/16 12:15:25;;;;;;;44.63;37.95;;;15.20;70.20;;;;;;5027102;28;20488;-83
2022/03/16 12:17:56;;;;;;;41.38;35.42;;;15.30;70.20;;;;;;5028294;28;20037;-83
2022/03/16 12:20:30;;;;;;;44.22;36.13;;;15.20;69.50;;;;;;5028964;28;20056;-82
2022/03/16 12:23:09;;;;;;;45.17;36.28;;;15.20;69.80;;;;;;5029705;28;20041;-82
2022/03/16 12:25:36;;;;;;;44.55;37.03;;;15.20;70.40;;;;;;5008423;28;20116;-82
2022/03/16 12:30:56;;;;;;;44.90;36.45;;;15.30;69.90;;;;;;5030017;28;20184;-82
2022/03/16 12:33:24;;;;;;;43.35;37.75;;;15.40;70.10;;;;;;5024947;28;20045;-83
2022/03/16 12:35:54;;;;;;;44.85;38.25;;;15.40;69.30;;;;;;5011471;28;20127;-82
2022/03/16 12:38:21;;;;;;;;;;;15.50;70.00;;;;;;5030135;28;20042;-84
2022/03/16 12:43:34;;;;;;;45.25;37.63;;;15.60;69.50;;;;;;4986556;28;20037;-81
2022/03/16 12:46:08;;;;;;;47.38;40.50;;;15.70;69.20;;;;;;5032064;28;20041;-82
2022/03/16 12:48:36;;;;;;;45.00;37.70;;;15.70;68.40;;;;;;5026406;28;20048;-83
2022/03/16 12:51:02;;;;;;;47.42;40.65;;;15.70;68.90;;;;;;5014325;28;20493;-83
2022/03/16 12:53:46;;;;;;;55.38;42.80;;;15.70;69.00;;;;;;5025248;28;20041;-83
2022/03/16 12:56:18;;;;;;;49.58;42.85;;;15.70;68.30;;;;;;5028337;28;20058;-83
2022/03/16 12:59:02;;;;;;;50.15;42.13;;;15.60;69.20;;;;;;5030082;28;20108;-83